sensor_id;sensor_type;location;lat;lon;timestamp;temperature;humidity
33109;HTU21D;19481;51.118;6.940;2023-07-29T00:00:52;19.60;74.49
33109;HTU21D;19481;51.118;6.940;2023-07-29T00:05:55;19.58;74.54
33109;HTU21D;19481;51.118;6.940;2023-07-29T00:10:58;19.58;74.20
33109;HTU21D;19481;51.118;6.940;2023-07-29T00:16:00;19.59;74.10
33109;HTU21D;19481;51.118;6.940;2023-07-29T00:21:01;19.56;74.18
33109;HTU21D;19481;51.118;6.940;2023-07-29T00:26:04;19.51;74.42
33109;HTU21D;19481;51.118;6.940;2023-07-29T00:31:06;19.45;74.65
33109;HTU21D;19481;51.118;6.940;2023-07-29T00:36:08;19.43;74.51
33109;HTU21D;19481;51.118;6.940;2023-07-29T00:41:11;19.42;74.44
33109;HTU21D;19481;51.118;6.940;2023-07-29T00:46:13;19.43;74.43
33109;HTU21D;19481;51.118;6.940;2023-07-29T00:51:15;19.40;74.50
33109;HTU21D;19481;51.118;6.940;2023-07-29T00:56:18;19.41;74.38
33109;HTU21D;19481;51.118;6.940;2023-07-29T01:01:20;19.40;74.38
33109;HTU21D;19481;51.118;6.940;2023-07-29T01:06:28;19.43;74.17
33109;HTU21D;19481;51.118;6.940;2023-07-29T01:11:41;19.41;74.32
33109;HTU21D;19481;51.118;6.940;2023-07-29T01:16:47;19.38;74.69
33109;HTU21D;19481;51.118;6.940;2023-07-29T01:21:51;19.33;74.67
33109;HTU21D;19481;51.118;6.940;2023-07-29T01:26:54;19.30;74.65
33109;HTU21D;19481;51.118;6.940;2023-07-29T01:32:00;19.28;74.73
33109;HTU21D;19481;51.118;6.940;2023-07-29T01:37:04;19.26;74.67
33109;HTU21D;19481;51.118;6.940;2023-07-29T01:42:11;19.27;74.66
33109;HTU21D;19481;51.118;6.940;2023-07-29T01:47:13;19.29;74.53
33109;HTU21D;19481;51.118;6.940;2023-07-29T01:52:15;19.32;74.47
33109;HTU21D;19481;51.118;6.940;2023-07-29T01:57:18;19.31;74.62
33109;HTU21D;19481;51.118;6.940;2023-07-29T02:02:19;19.26;75.05
33109;HTU21D;19481;51.118;6.940;2023-07-29T02:07:21;19.23;75.11
33109;HTU21D;19481;51.118;6.940;2023-07-29T02:12:24;19.22;75.02
33109;HTU21D;19481;51.118;6.940;2023-07-29T02:17:25;19.22;75.11
33109;HTU21D;19481;51.118;6.940;2023-07-29T02:22:27;19.18;75.31
33109;HTU21D;19481;51.118;6.940;2023-07-29T02:27:30;19.16;75.47
33109;HTU21D;19481;51.118;6.940;2023-07-29T02:32:31;19.18;75.09
33109;HTU21D;19481;51.118;6.940;2023-07-29T02:37:33;19.23;74.92
33109;HTU21D;19481;51.118;6.940;2023-07-29T02:42:36;19.27;74.91
33109;HTU21D;19481;51.118;6.940;2023-07-29T02:47:38;19.28;74.93
33109;HTU21D;19481;51.118;6.940;2023-07-29T02:52:40;19.32;74.85
33109;HTU21D;19481;51.118;6.940;2023-07-29T02:57:43;19.36;74.81
33109;HTU21D;19481;51.118;6.940;2023-07-29T03:02:44;19.31;75.08
33109;HTU21D;19481;51.118;6.940;2023-07-29T03:07:46;19.29;75.24
33109;HTU21D;19481;51.118;6.940;2023-07-29T03:12:49;19.31;75.11
33109;HTU21D;19481;51.118;6.940;2023-07-29T03:17:51;19.35;75.12
33109;HTU21D;19481;51.118;6.940;2023-07-29T03:22:52;19.36;75.12
33109;HTU21D;19481;51.118;6.940;2023-07-29T03:27:55;19.33;75.31
33109;HTU21D;19481;51.118;6.940;2023-07-29T03:32:57;19.33;75.31
33109;HTU21D;19481;51.118;6.940;2023-07-29T03:37:58;19.33;75.29
33109;HTU21D;19481;51.118;6.940;2023-07-29T03:43:01;19.31;75.30
33109;HTU21D;19481;51.118;6.940;2023-07-29T03:48:03;19.29;75.54
33109;HTU21D;19481;51.118;6.940;2023-07-29T03:53:05;19.25;75.90
33109;HTU21D;19481;51.118;6.940;2023-07-29T03:58:08;19.24;75.66
33109;HTU21D;19481;51.118;6.940;2023-07-29T04:03:09;19.28;75.57
33109;HTU21D;19481;51.118;6.940;2023-07-29T04:08:11;19.26;75.58
33109;HTU21D;19481;51.118;6.940;2023-07-29T04:13:14;19.26;75.60
33109;HTU21D;19481;51.118;6.940;2023-07-29T04:18:16;19.27;75.66
33109;HTU21D;19481;51.118;6.940;2023-07-29T04:23:17;19.30;75.68
33109;HTU21D;19481;51.118;6.940;2023-07-29T04:28:20;19.26;75.63
33109;HTU21D;19481;51.118;6.940;2023-07-29T04:33:22;19.24;75.89
33109;HTU21D;19481;51.118;6.940;2023-07-29T04:38:30;19.24;75.76
33109;HTU21D;19481;51.118;6.940;2023-07-29T04:43:34;19.20;75.83
33109;HTU21D;19481;51.118;6.940;2023-07-29T04:48:35;19.15;75.86
33109;HTU21D;19481;51.118;6.940;2023-07-29T04:53:37;19.13;75.79
33109;HTU21D;19481;51.118;6.940;2023-07-29T04:58:40;19.14;75.60
33109;HTU21D;19481;51.118;6.940;2023-07-29T05:03:41;19.18;75.60
33109;HTU21D;19481;51.118;6.940;2023-07-29T05:08:43;19.28;75.22
33109;HTU21D;19481;51.118;6.940;2023-07-29T05:13:46;19.30;75.24
33109;HTU21D;19481;51.118;6.940;2023-07-29T05:18:48;19.36;75.16
33109;HTU21D;19481;51.118;6.940;2023-07-29T05:23:49;19.41;75.02
33109;HTU21D;19481;51.118;6.940;2023-07-29T05:28:52;19.50;74.71
33109;HTU21D;19481;51.118;6.940;2023-07-29T05:33:54;19.50;74.89
33109;HTU21D;19481;51.118;6.940;2023-07-29T05:38:55;19.50;74.92
33109;HTU21D;19481;51.118;6.940;2023-07-29T05:43:58;19.47;74.96
33109;HTU21D;19481;51.118;6.940;2023-07-29T05:49:00;19.40;75.21
33109;HTU21D;19481;51.118;6.940;2023-07-29T05:54:02;19.31;75.25
33109;HTU21D;19481;51.118;6.940;2023-07-29T05:59:05;19.31;74.96
33109;HTU21D;19481;51.118;6.940;2023-07-29T06:04:06;19.38;74.64
33109;HTU21D;19481;51.118;6.940;2023-07-29T06:09:08;19.46;74.31
33109;HTU21D;19481;51.118;6.940;2023-07-29T06:14:11;19.40;74.47
33109;HTU21D;19481;51.118;6.940;2023-07-29T06:19:12;19.43;74.16
33109;HTU21D;19481;51.118;6.940;2023-07-29T06:24:14;19.38;74.12
33109;HTU21D;19481;51.118;6.940;2023-07-29T06:29:17;19.40;73.74
33109;HTU21D;19481;51.118;6.940;2023-07-29T06:34:19;19.22;73.92
33109;HTU21D;19481;51.118;6.940;2023-07-29T06:39:21;19.17;73.74
33109;HTU21D;19481;51.118;6.940;2023-07-29T06:44:24;19.11;73.51
33109;HTU21D;19481;51.118;6.940;2023-07-29T06:49:25;19.03;73.72
33109;HTU21D;19481;51.118;6.940;2023-07-29T06:54:27;18.99;73.75
33109;HTU21D;19481;51.118;6.940;2023-07-29T06:59:30;19.07;73.44
33109;HTU21D;19481;51.118;6.940;2023-07-29T07:04:31;19.20;73.04
33109;HTU21D;19481;51.118;6.940;2023-07-29T07:09:33;19.55;72.00
33109;HTU21D;19481;51.118;6.940;2023-07-29T07:14:36;20.13;70.52
33109;HTU21D;19481;51.118;6.940;2023-07-29T07:19:38;20.54;69.79
33109;HTU21D;19481;51.118;6.940;2023-07-29T07:24:39;20.89;69.44
33109;HTU21D;19481;51.118;6.940;2023-07-29T07:29:42;21.65;68.06
33109;HTU21D;19481;51.118;6.940;2023-07-29T07:34:44;23.17;65.49
33109;HTU21D;19481;51.118;6.940;2023-07-29T07:39:45;22.64;68.49
33109;HTU21D;19481;51.118;6.940;2023-07-29T07:44:48;22.16;69.80
33109;HTU21D;19481;51.118;6.940;2023-07-29T07:49:50;22.55;68.30
33109;HTU21D;19481;51.118;6.940;2023-07-29T07:54:52;22.54;68.33
33109;HTU21D;19481;51.118;6.940;2023-07-29T07:59:55;22.12;69.55
33109;HTU21D;19481;51.118;6.940;2023-07-29T08:04:57;22.18;68.77
33109;HTU21D;19481;51.118;6.940;2023-07-29T08:09:58;22.38;67.58
33109;HTU21D;19481;51.118;6.940;2023-07-29T08:15:01;22.86;66.27
33109;HTU21D;19481;51.118;6.940;2023-07-29T08:20:04;24.09;63.85
33109;HTU21D;19481;51.118;6.940;2023-07-29T08:25:07;25.96;61.06
33109;HTU21D;19481;51.118;6.940;2023-07-29T08:30:10;27.23;60.38
33109;HTU21D;19481;51.118;6.940;2023-07-29T08:35:12;27.63;61.91
33109;HTU21D;19481;51.118;6.940;2023-07-29T08:40:14;26.38;66.11
33109;HTU21D;19481;51.118;6.940;2023-07-29T08:45:17;25.98;65.41
33109;HTU21D;19481;51.118;6.940;2023-07-29T08:50:19;26.71;62.33
33109;HTU21D;19481;51.118;6.940;2023-07-29T08:55:21;25.87;64.21
33109;HTU21D;19481;51.118;6.940;2023-07-29T09:00:25;24.91;65.47
33109;HTU21D;19481;51.118;6.940;2023-07-29T09:05:27;24.36;65.54
33109;HTU21D;19481;51.118;6.940;2023-07-29T09:10:28;24.20;64.23
33109;HTU21D;19481;51.118;6.940;2023-07-29T09:15:33;23.84;61.99
33109;HTU21D;19481;51.118;6.940;2023-07-29T09:20:35;23.50;63.56
33109;HTU21D;19481;51.118;6.940;2023-07-29T09:25:37;23.65;62.11
33109;HTU21D;19481;51.118;6.940;2023-07-29T09:30:41;24.77;58.54
33109;HTU21D;19481;51.118;6.940;2023-07-29T09:35:44;25.54;53.37
33109;HTU21D;19481;51.118;6.940;2023-07-29T09:40:45;25.58;57.43
33109;HTU21D;19481;51.118;6.940;2023-07-29T09:45:51;25.53;55.83
33109;HTU21D;19481;51.118;6.940;2023-07-29T09:50:53;25.33;58.06
33109;HTU21D;19481;51.118;6.940;2023-07-29T09:55:55;24.42;60.37
33109;HTU21D;19481;51.118;6.940;2023-07-29T10:00:58;24.20;59.84
33109;HTU21D;19481;51.118;6.940;2023-07-29T10:06:01;24.75;57.49
33109;HTU21D;19481;51.118;6.940;2023-07-29T10:11:05;25.28;56.10
33109;HTU21D;19481;51.118;6.940;2023-07-29T10:16:08;25.29;55.52
33109;HTU21D;19481;51.118;6.940;2023-07-29T10:21:12;25.03;56.91
33109;HTU21D;19481;51.118;6.940;2023-07-29T10:26:16;24.85;57.46
33109;HTU21D;19481;51.118;6.940;2023-07-29T10:31:22;23.71;59.87
33109;HTU21D;19481;51.118;6.940;2023-07-29T10:36:24;23.35;58.90
33109;HTU21D;19481;51.118;6.940;2023-07-29T10:41:57;22.96;53.61
33109;HTU21D;19481;51.118;6.940;2023-07-29T10:47:10;22.75;58.96
33109;HTU21D;19481;51.118;6.940;2023-07-29T10:52:13;22.96;58.33
33109;HTU21D;19481;51.118;6.940;2023-07-29T10:57:30;24.43;53.82
33109;HTU21D;19481;51.118;6.940;2023-07-29T11:02:35;26.01;50.96
33109;HTU21D;19481;51.118;6.940;2023-07-29T11:07:44;25.33;47.69
33109;HTU21D;19481;51.118;6.940;2023-07-29T11:12:47;25.54;53.30
33109;HTU21D;19481;51.118;6.940;2023-07-29T11:17:53;25.39;50.87
33109;HTU21D;19481;51.118;6.940;2023-07-29T11:22:56;24.86;55.06
33109;HTU21D;19481;51.118;6.940;2023-07-29T11:27:59;25.21;54.23
33109;HTU21D;19481;51.118;6.940;2023-07-29T11:33:02;25.99;51.75
33109;HTU21D;19481;51.118;6.940;2023-07-29T11:38:04;25.50;52.62
33109;HTU21D;19481;51.118;6.940;2023-07-29T11:43:06;24.94;55.07
33109;HTU21D;19481;51.118;6.940;2023-07-29T11:48:09;24.39;56.71
33109;HTU21D;19481;51.118;6.940;2023-07-29T11:53:11;23.71;57.64
33109;HTU21D;19481;51.118;6.940;2023-07-29T11:58:13;24.40;53.57
33109;HTU21D;19481;51.118;6.940;2023-07-29T12:03:18;24.69;54.49
33109;HTU21D;19481;51.118;6.940;2023-07-29T12:08:20;25.44;52.81
33109;HTU21D;19481;51.118;6.940;2023-07-29T12:13:24;26.56;49.88
33109;HTU21D;19481;51.118;6.940;2023-07-29T12:18:30;25.75;47.11
33109;HTU21D;19481;51.118;6.940;2023-07-29T12:23:33;24.90;54.22
33109;HTU21D;19481;51.118;6.940;2023-07-29T12:28:35;24.68;54.35
33109;HTU21D;19481;51.118;6.940;2023-07-29T12:33:38;25.65;51.66
33109;HTU21D;19481;51.118;6.940;2023-07-29T12:38:42;25.50;52.05
33109;HTU21D;19481;51.118;6.940;2023-07-29T12:43:45;25.77;51.29
33109;HTU21D;19481;51.118;6.940;2023-07-29T12:48:48;25.82;50.61
33109;HTU21D;19481;51.118;6.940;2023-07-29T12:53:49;25.42;50.14
33109;HTU21D;19481;51.118;6.940;2023-07-29T12:58:51;25.39;51.78
33109;HTU21D;19481;51.118;6.940;2023-07-29T13:03:54;25.20;52.88
33109;HTU21D;19481;51.118;6.940;2023-07-29T13:08:56;25.19;52.88
33109;HTU21D;19481;51.118;6.940;2023-07-29T13:13:58;24.63;54.21
33109;HTU21D;19481;51.118;6.940;2023-07-29T13:19:02;24.71;53.65
33109;HTU21D;19481;51.118;6.940;2023-07-29T13:24:03;24.59;53.96
33109;HTU21D;19481;51.118;6.940;2023-07-29T13:29:05;24.04;54.93
33109;HTU21D;19481;51.118;6.940;2023-07-29T13:34:08;23.88;55.23
33109;HTU21D;19481;51.118;6.940;2023-07-29T13:39:10;23.71;55.87
33109;HTU21D;19481;51.118;6.940;2023-07-29T13:44:11;23.13;57.61
33109;HTU21D;19481;51.118;6.940;2023-07-29T13:49:14;23.13;57.57
33109;HTU21D;19481;51.118;6.940;2023-07-29T13:54:17;23.36;56.99
33109;HTU21D;19481;51.118;6.940;2023-07-29T13:59:19;23.14;57.82
33109;HTU21D;19481;51.118;6.940;2023-07-29T14:04:22;21.74;62.49
33109;HTU21D;19481;51.118;6.940;2023-07-29T14:09:24;21.30;63.62
33109;HTU21D;19481;51.118;6.940;2023-07-29T14:14:26;21.43;62.93
33109;HTU21D;19481;51.118;6.940;2023-07-29T14:19:29;21.94;61.21
33109;HTU21D;19481;51.118;6.940;2023-07-29T14:24:31;22.70;59.54
33109;HTU21D;19481;51.118;6.940;2023-07-29T14:29:32;22.85;59.73
33109;HTU21D;19481;51.118;6.940;2023-07-29T14:34:35;23.11;59.28
33109;HTU21D;19481;51.118;6.940;2023-07-29T14:39:37;23.51;58.67
33109;HTU21D;19481;51.118;6.940;2023-07-29T14:44:38;23.76;58.60
33109;HTU21D;19481;51.118;6.940;2023-07-29T14:49:41;23.57;59.32
33109;HTU21D;19481;51.118;6.940;2023-07-29T14:54:43;23.36;60.07
33109;HTU21D;19481;51.118;6.940;2023-07-29T14:59:45;23.42;59.61
33109;HTU21D;19481;51.118;6.940;2023-07-29T15:04:48;23.91;58.05
33109;HTU21D;19481;51.118;6.940;2023-07-29T15:09:49;23.74;58.66
33109;HTU21D;19481;51.118;6.940;2023-07-29T15:14:51;23.72;58.54
33109;HTU21D;19481;51.118;6.940;2023-07-29T15:19:54;23.81;58.06
33109;HTU21D;19481;51.118;6.940;2023-07-29T15:24:55;23.79;57.93
33109;HTU21D;19481;51.118;6.940;2023-07-29T15:29:57;23.60;58.49
33109;HTU21D;19481;51.118;6.940;2023-07-29T15:35:00;23.57;58.41
33109;HTU21D;19481;51.118;6.940;2023-07-29T15:40:02;23.68;58.09
33109;HTU21D;19481;51.118;6.940;2023-07-29T15:45:05;23.71;58.09
33109;HTU21D;19481;51.118;6.940;2023-07-29T15:50:08;23.79;58.02
33109;HTU21D;19481;51.118;6.940;2023-07-29T15:55:10;23.99;57.42
33109;HTU21D;19481;51.118;6.940;2023-07-29T16:00:12;23.74;58.19
33109;HTU21D;19481;51.118;6.940;2023-07-29T16:05:16;24.03;57.35
33109;HTU21D;19481;51.118;6.940;2023-07-29T16:10:17;23.94;57.56
33109;HTU21D;19481;51.118;6.940;2023-07-29T16:15:19;24.12;56.95
33109;HTU21D;19481;51.118;6.940;2023-07-29T16:20:22;24.35;56.25
33109;HTU21D;19481;51.118;6.940;2023-07-29T16:25:24;24.42;56.14
33109;HTU21D;19481;51.118;6.940;2023-07-29T16:30:25;24.27;56.60
33109;HTU21D;19481;51.118;6.940;2023-07-29T16:35:28;24.32;56.28
33109;HTU21D;19481;51.118;6.940;2023-07-29T16:40:30;24.34;56.23
33109;HTU21D;19481;51.118;6.940;2023-07-29T16:45:31;24.31;56.22
33109;HTU21D;19481;51.118;6.940;2023-07-29T16:50:35;24.15;56.58
33109;HTU21D;19481;51.118;6.940;2023-07-29T16:55:37;24.02;56.74
33109;HTU21D;19481;51.118;6.940;2023-07-29T17:00:39;23.56;57.76
33109;HTU21D;19481;51.118;6.940;2023-07-29T17:05:42;23.54;57.20
33109;HTU21D;19481;51.118;6.940;2023-07-29T17:10:43;23.70;56.93
33109;HTU21D;19481;51.118;6.940;2023-07-29T17:15:45;23.64;57.05
33109;HTU21D;19481;51.118;6.940;2023-07-29T17:20:49;23.54;57.15
33109;HTU21D;19481;51.118;6.940;2023-07-29T17:25:50;23.30;57.58
33109;HTU21D;19481;51.118;6.940;2023-07-29T17:30:52;23.15;57.73
33109;HTU21D;19481;51.118;6.940;2023-07-29T17:35:55;23.08;57.77
33109;HTU21D;19481;51.118;6.940;2023-07-29T17:40:57;23.00;57.88
33109;HTU21D;19481;51.118;6.940;2023-07-29T17:46:01;22.75;58.48
33109;HTU21D;19481;51.118;6.940;2023-07-29T17:51:04;22.64;58.55
33109;HTU21D;19481;51.118;6.940;2023-07-29T17:56:06;22.47;58.83
33109;HTU21D;19481;51.118;6.940;2023-07-29T18:01:08;21.15;63.55
33109;HTU21D;19481;51.118;6.940;2023-07-29T18:06:15;21.00;65.14
33109;HTU21D;19481;51.118;6.940;2023-07-29T18:11:17;20.81;63.48
33109;HTU21D;19481;51.118;6.940;2023-07-29T18:16:19;20.54;63.89
33109;HTU21D;19481;51.118;6.940;2023-07-29T18:21:22;20.44;63.93
33109;HTU21D;19481;51.118;6.940;2023-07-29T18:26:23;20.27;64.18
33109;HTU21D;19481;51.118;6.940;2023-07-29T18:31:25;20.07;64.95
33109;HTU21D;19481;51.118;6.940;2023-07-29T18:36:28;20.02;64.74
33109;HTU21D;19481;51.118;6.940;2023-07-29T18:41:30;19.97;64.78
33109;HTU21D;19481;51.118;6.940;2023-07-29T18:46:32;19.97;64.61
33109;HTU21D;19481;51.118;6.940;2023-07-29T18:51:35;19.89;64.92
33109;HTU21D;19481;51.118;6.940;2023-07-29T18:56:37;19.82;65.22
33109;HTU21D;19481;51.118;6.940;2023-07-29T19:01:38;19.84;65.16
33109;HTU21D;19481;51.118;6.940;2023-07-29T19:06:41;19.82;65.28
33109;HTU21D;19481;51.118;6.940;2023-07-29T19:11:43;19.71;65.78
33109;HTU21D;19481;51.118;6.940;2023-07-29T19:16:45;19.68;65.92
33109;HTU21D;19481;51.118;6.940;2023-07-29T19:21:48;19.63;66.06
33109;HTU21D;19481;51.118;6.940;2023-07-29T19:26:50;19.56;66.36
33109;HTU21D;19481;51.118;6.940;2023-07-29T19:31:51;19.54;66.53
33109;HTU21D;19481;51.118;6.940;2023-07-29T19:36:54;19.46;67.40
33109;HTU21D;19481;51.118;6.940;2023-07-29T19:41:56;19.42;67.10
33109;HTU21D;19481;51.118;6.940;2023-07-29T19:46:58;19.43;67.12
33109;HTU21D;19481;51.118;6.940;2023-07-29T19:52:01;19.43;67.06
33109;HTU21D;19481;51.118;6.940;2023-07-29T19:57:03;19.38;67.47
33109;HTU21D;19481;51.118;6.940;2023-07-29T20:02:05;19.39;67.40
33109;HTU21D;19481;51.118;6.940;2023-07-29T20:07:08;19.42;67.37
33109;HTU21D;19481;51.118;6.940;2023-07-29T20:12:09;19.41;67.55
33109;HTU21D;19481;51.118;6.940;2023-07-29T20:17:11;19.39;67.75
33109;HTU21D;19481;51.118;6.940;2023-07-29T20:22:14;19.32;68.07
33109;HTU21D;19481;51.118;6.940;2023-07-29T20:27:16;19.27;68.41
33109;HTU21D;19481;51.118;6.940;2023-07-29T20:32:18;19.26;68.63
33109;HTU21D;19481;51.118;6.940;2023-07-29T20:37:21;19.20;68.59
33109;HTU21D;19481;51.118;6.940;2023-07-29T20:42:22;19.17;68.62
33109;HTU21D;19481;51.118;6.940;2023-07-29T20:47:24;19.15;68.72
33109;HTU21D;19481;51.118;6.940;2023-07-29T20:52:27;19.07;69.00
33109;HTU21D;19481;51.118;6.940;2023-07-29T20:57:29;19.00;69.23
33109;HTU21D;19481;51.118;6.940;2023-07-29T21:02:30;18.98;69.34
33109;HTU21D;19481;51.118;6.940;2023-07-29T21:07:33;19.02;69.09
33109;HTU21D;19481;51.118;6.940;2023-07-29T21:12:35;19.01;69.19
33109;HTU21D;19481;51.118;6.940;2023-07-29T21:17:36;18.95;69.63
33109;HTU21D;19481;51.118;6.940;2023-07-29T21:22:39;18.87;69.68
33109;HTU21D;19481;51.118;6.940;2023-07-29T21:27:41;18.88;69.68
33109;HTU21D;19481;51.118;6.940;2023-07-29T21:32:42;18.85;69.61
33109;HTU21D;19481;51.118;6.940;2023-07-29T21:37:45;18.79;69.64
33109;HTU21D;19481;51.118;6.940;2023-07-29T21:42:47;18.64;70.15
33109;HTU21D;19481;51.118;6.940;2023-07-29T21:47:49;18.59;70.32
33109;HTU21D;19481;51.118;6.940;2023-07-29T21:52:52;18.56;70.26
33109;HTU21D;19481;51.118;6.940;2023-07-29T21:57:53;18.50;70.38
33109;HTU21D;19481;51.118;6.940;2023-07-29T22:02:55;18.49;70.38
33109;HTU21D;19481;51.118;6.940;2023-07-29T22:07:58;18.46;70.37
33109;HTU21D;19481;51.118;6.940;2023-07-29T22:13:00;18.51;70.39
33109;HTU21D;19481;51.118;6.940;2023-07-29T22:18:02;18.56;70.08
33109;HTU21D;19481;51.118;6.940;2023-07-29T22:23:05;18.63;69.84
33109;HTU21D;19481;51.118;6.940;2023-07-29T22:28:06;18.68;69.95
33109;HTU21D;19481;51.118;6.940;2023-07-29T22:33:09;18.72;69.86
33109;HTU21D;19481;51.118;6.940;2023-07-29T22:38:12;18.69;70.06
33109;HTU21D;19481;51.118;6.940;2023-07-29T22:43:14;18.65;70.09
33109;HTU21D;19481;51.118;6.940;2023-07-29T22:48:15;18.63;70.11
33109;HTU21D;19481;51.118;6.940;2023-07-29T22:53:18;18.54;70.18
33109;HTU21D;19481;51.118;6.940;2023-07-29T22:58:21;18.49;70.34
33109;HTU21D;19481;51.118;6.940;2023-07-29T23:03:23;18.39;70.52
33109;HTU21D;19481;51.118;6.940;2023-07-29T23:08:26;18.26;70.77
33109;HTU21D;19481;51.118;6.940;2023-07-29T23:13:28;18.26;70.74
33109;HTU21D;19481;51.118;6.940;2023-07-29T23:18:30;18.14;70.94
33109;HTU21D;19481;51.118;6.940;2023-07-29T23:23:33;18.04;71.03
33109;HTU21D;19481;51.118;6.940;2023-07-29T23:28:34;17.90;71.20
33109;HTU21D;19481;51.118;6.940;2023-07-29T23:33:36;17.75;71.37
33109;HTU21D;19481;51.118;6.940;2023-07-29T23:38:39;17.56;71.67
33109;HTU21D;19481;51.118;6.940;2023-07-29T23:43:40;17.44;71.81
33109;HTU21D;19481;51.118;6.940;2023-07-29T23:48:42;17.33;71.94
33109;HTU21D;19481;51.118;6.940;2023-07-29T23:53:45;17.25;71.86
33109;HTU21D;19481;51.118;6.940;2023-07-29T23:58:46;17.21;71.85
